Spring Lake Heights, New Jersey
Current Conditions -  °F | °C
As of 2:15 PM on Saturday 25 Oct 2014 (Local Time) from KBLM Reporting Station
Clear Clear  
Wind Chill: 19°   Ceiling: Unl
Heat Index: 19°   Visibility: 10mi
Dew Point:   Wind: 13mph
Humidity: 43%   Direction: 270°W
Pressure: 29.74"   Gusts: 16mph
Location:  40.1528°N, 74.0364°W
Report Text: KBLM 251815Z AUTO 27011G14KT 10SM CLR 19/06 A2974 RMK AO1
Loading
Personal Weather Stations






























Interactive Weather Map
Tropical Storm Tracking
New forecast layout! Learn more

10-Day Weather Forecast

Advertisements
Track Severe Weather on mobile